createdAt,value
2019-02-25T00:02:14.946Z,5.70
2019-02-25T00:05:03.137Z,6.80
2019-02-25T00:07:34.008Z,5.33
2019-02-25T00:10:05.322Z,5.17
2019-02-25T00:12:57.122Z,5.37
2019-02-25T00:15:27.471Z,5.83
2019-02-25T00:18:13.329Z,5.57
2019-02-25T00:20:47.333Z,5.60
2019-02-25T00:23:36.741Z,5.47
2019-02-25T00:26:08.597Z,5.57
2019-02-25T00:28:51.547Z,5.03
2019-02-25T00:31:28.461Z,5.33
2019-02-25T00:33:59.537Z,5.57
2019-02-25T00:36:48.394Z,5.63
2019-02-25T00:39:21.893Z,4.93
2019-02-25T00:41:57.231Z,6.50
2019-02-25T00:44:42.300Z,5.33
2019-02-25T00:47:13.511Z,5.20
2019-02-25T00:49:51.651Z,5.13
2019-02-25T00:52:22.716Z,5.47
2019-02-25T00:58:42.135Z,6.60
2019-02-25T01:02:04.499Z,25.40
2019-02-25T01:04:41.510Z,8.83
2019-02-25T01:07:18.692Z,14.60
2019-02-25T01:09:48.704Z,20.83
2019-02-25T01:12:18.520Z,38.97
2019-02-25T01:14:48.535Z,24.97
2019-02-25T01:17:18.240Z,22.47
2019-02-25T01:19:48.262Z,24.40
2019-02-25T01:22:18.587Z,20.33
2019-02-25T01:24:48.399Z,19.93
2019-02-25T01:27:18.202Z,14.73
2019-02-25T01:29:48.074Z,24.00
2019-02-25T01:32:18.000Z,16.80
2019-02-25T01:34:47.639Z,21.47
2019-02-25T01:37:17.561Z,22.13
2019-02-25T01:39:47.369Z,23.90
2019-02-25T01:42:17.388Z,30.90
2019-02-25T01:44:47.140Z,29.00
2019-02-25T01:47:16.856Z,23.67
2019-02-25T01:49:46.763Z,22.87
2019-02-25T01:52:17.141Z,20.23
2019-02-25T01:54:47.206Z,17.90
2019-02-25T01:57:17.070Z,17.30
2019-02-25T01:59:46.782Z,14.97
2019-02-25T02:02:17.058Z,14.23
2019-02-25T02:04:47.168Z,13.73
2019-02-25T02:07:16.724Z,14.47
2019-02-25T02:09:46.491Z,11.30
2019-02-25T02:12:16.295Z,9.03
2019-02-25T02:14:46.491Z,10.20
2019-02-25T02:17:15.581Z,7.50
2019-02-25T02:19:44.665Z,12.07
2019-02-25T02:22:13.730Z,13.97
2019-02-25T02:24:42.831Z,13.07
2019-02-25T02:27:11.885Z,11.07
2019-02-25T02:29:40.986Z,11.13
2019-02-25T02:32:10.259Z,12.07
2019-02-25T02:34:39.378Z,11.63
2019-02-25T02:37:08.445Z,12.63
2019-02-25T02:39:37.540Z,10.73
2019-02-25T02:42:17.202Z,9.90
2019-02-25T02:44:48.625Z,8.13
2019-02-25T02:47:27.317Z,7.23
2019-02-25T02:49:56.446Z,7.93
2019-02-25T02:52:25.523Z,5.83
2019-02-25T02:54:54.597Z,6.93
2019-02-25T02:57:23.585Z,5.63
2019-02-25T02:59:52.660Z,6.33
2019-02-25T03:02:21.741Z,6.27
2019-02-25T03:04:50.858Z,5.60
2019-02-25T03:07:19.902Z,8.07
2019-02-25T03:09:48.988Z,8.20
2019-02-25T03:12:18.038Z,8.67
2019-02-25T03:14:47.157Z,8.37
2019-02-25T03:17:16.210Z,7.63
2019-02-25T03:19:45.312Z,7.10
2019-02-25T03:22:14.367Z,10.40
2019-02-25T03:24:43.461Z,12.90
2019-02-25T03:27:12.357Z,13.03
2019-02-25T03:29:41.420Z,11.57
2019-02-25T03:32:10.529Z,11.20
2019-02-25T03:34:39.592Z,14.73
2019-02-25T03:37:08.646Z,12.90
2019-02-25T03:39:37.728Z,10.87
2019-02-25T03:42:06.781Z,8.27
2019-02-25T03:44:35.794Z,8.00
2019-02-25T03:47:04.864Z,7.90
2019-02-25T03:49:33.946Z,6.43
2019-02-25T03:52:02.991Z,7.37
2019-02-25T03:54:32.056Z,6.93
2019-02-25T03:57:01.422Z,7.87
2019-02-25T03:59:30.498Z,8.30
2019-02-25T04:01:59.576Z,8.53
2019-02-25T04:04:28.665Z,6.10
2019-02-25T04:06:57.745Z,9.60
2019-02-25T04:09:26.830Z,7.63
2019-02-25T04:11:55.929Z,6.97
2019-02-25T04:14:25.000Z,8.33
2019-02-25T04:16:54.093Z,6.70
2019-02-25T04:19:23.149Z,7.50
2019-02-25T04:21:52.243Z,6.33
2019-02-25T04:24:21.311Z,5.67
2019-02-25T04:26:50.403Z,6.37
2019-02-25T04:29:19.470Z,6.53
2019-02-25T04:31:48.540Z,5.60
2019-02-25T04:34:17.607Z,7.07
2019-02-25T04:36:46.625Z,8.70
2019-02-25T04:39:15.675Z,6.50
2019-02-25T04:41:44.724Z,6.07
2019-02-25T04:44:13.759Z,5.60
2019-02-25T04:46:42.832Z,5.43
2019-02-25T04:49:11.911Z,6.40
2019-02-25T04:51:40.999Z,7.33
2019-02-25T04:54:10.057Z,9.27
2019-02-25T04:56:39.139Z,8.93
2019-02-25T04:59:08.209Z,7.20
2019-02-25T05:01:37.319Z,5.70
2019-02-25T05:04:06.454Z,6.93
2019-02-25T05:06:35.602Z,8.53
2019-02-25T05:09:06.353Z,7.40
2019-02-25T05:11:36.048Z,4.80
2019-02-25T05:14:05.130Z,4.63
2019-02-25T05:16:34.292Z,5.30
2019-02-25T05:19:03.380Z,4.70
2019-02-25T05:21:32.426Z,4.43
2019-02-25T05:24:01.589Z,7.93
2019-02-25T05:26:30.693Z,6.60
2019-02-25T05:28:59.678Z,6.67
2019-02-25T05:31:28.786Z,5.70
2019-02-25T05:33:57.864Z,9.27
2019-02-25T05:36:26.941Z,8.37
2019-02-25T05:38:56.024Z,7.03
2019-02-25T05:41:25.111Z,9.60
2019-02-25T05:43:54.222Z,6.67
2019-02-25T05:46:23.398Z,10.93
2019-02-25T05:48:52.539Z,8.57
2019-02-25T05:51:21.708Z,9.97
2019-02-25T05:53:50.797Z,8.40
2019-02-25T05:56:19.878Z,5.93
2019-02-25T05:58:48.924Z,6.53
2019-02-25T06:01:18.106Z,6.03
2019-02-25T06:03:47.169Z,7.73
2019-02-25T06:06:16.182Z,5.30
2019-02-25T06:08:45.249Z,4.87
2019-02-25T06:11:14.252Z,6.10
2019-02-25T06:13:43.341Z,6.53
2019-02-25T06:16:12.456Z,4.97
2019-02-25T06:18:41.514Z,5.60
2019-02-25T06:21:10.592Z,4.43
2019-02-25T06:23:39.596Z,11.07
2019-02-25T06:26:08.896Z,5.60
2019-02-25T06:28:37.977Z,5.33
2019-02-25T06:31:07.072Z,7.10
2019-02-25T06:33:36.068Z,5.40
2019-02-25T06:36:05.208Z,5.00
2019-02-25T06:38:34.204Z,6.70
2019-02-25T06:41:03.268Z,5.77
2019-02-25T06:43:32.323Z,5.83
2019-02-25T06:46:01.334Z,6.23
2019-02-25T06:48:30.399Z,5.90
2019-02-25T06:50:59.491Z,7.00
2019-02-25T06:53:28.570Z,6.10
2019-02-25T06:55:57.606Z,6.00
2019-02-25T06:58:26.692Z,6.87
2019-02-25T07:00:55.789Z,6.53
2019-02-25T07:03:24.873Z,5.43
2019-02-25T07:06:17.120Z,7.77
2019-02-25T07:09:14.011Z,6.20
2019-02-25T07:12:00.202Z,5.47
2019-02-25T07:14:43.189Z,6.07
2019-02-25T07:17:29.847Z,5.80
2019-02-25T07:20:16.631Z,7.87
2019-02-25T07:22:56.623Z,4.57
2019-02-25T07:25:47.451Z,4.80
2019-02-25T07:28:33.679Z,5.20
2019-02-25T07:31:13.977Z,15.50
2019-02-25T07:33:59.147Z,8.03
2019-02-25T07:36:46.099Z,7.67
2019-02-25T07:39:23.519Z,7.70
2019-02-25T07:42:20.558Z,7.40
2019-02-25T07:45:17.055Z,6.53
2019-02-25T07:48:06.840Z,7.23
2019-02-25T07:51:00.383Z,4.70
2019-02-25T07:53:50.532Z,6.40
2019-02-25T07:56:47.701Z,4.33
2019-02-25T07:59:47.736Z,4.93
2019-02-25T08:02:35.893Z,7.97
2019-02-25T08:05:23.241Z,11.07
2019-02-25T08:08:11.082Z,7.13
2019-02-25T08:11:05.232Z,6.10
2019-02-25T08:13:39.789Z,5.17
2019-02-25T08:16:17.918Z,6.20
2019-02-25T08:19:12.066Z,5.60
2019-02-25T08:21:52.198Z,4.07
2019-02-25T08:24:43.156Z,4.97
2019-02-25T08:27:19.385Z,4.83
2019-02-25T08:30:04.401Z,4.80
2019-02-25T08:32:52.558Z,4.57
2019-02-25T08:36:28.068Z,5.37
2019-02-25T08:39:07.640Z,4.27
2019-02-25T08:41:45.189Z,4.90
2019-02-25T08:44:36.365Z,4.20
2019-02-25T08:47:21.494Z,4.57
2019-02-25T08:49:53.704Z,4.17
2019-02-25T08:52:22.835Z,4.97
2019-02-25T08:54:51.999Z,5.63
2019-02-25T08:57:22.027Z,4.17
2019-02-25T08:59:51.133Z,3.90
2019-02-25T09:02:20.256Z,3.67
2019-02-25T09:04:49.402Z,4.03
2019-02-25T09:07:18.514Z,5.80
2019-02-25T09:09:47.582Z,4.00
2019-02-25T09:12:16.720Z,4.27
2019-02-25T09:14:45.841Z,4.97
2019-02-25T09:17:16.126Z,5.90
2019-02-25T09:19:45.324Z,3.50
2019-02-25T09:22:14.524Z,3.40
2019-02-25T09:24:43.697Z,2.90
2019-02-25T09:27:12.794Z,4.40
2019-02-25T09:29:41.884Z,4.17
2019-02-25T09:32:11.002Z,4.70
2019-02-25T09:34:40.111Z,4.07
2019-02-25T09:37:09.200Z,3.73
2019-02-25T09:39:38.314Z,4.27
2019-02-25T09:42:07.420Z,3.43
2019-02-25T09:44:37.945Z,5.93
2019-02-25T09:47:07.200Z,3.27
2019-02-25T09:49:36.274Z,2.87
2019-02-25T09:52:05.375Z,6.97
2019-02-25T09:54:34.492Z,3.40
2019-02-25T09:57:03.569Z,4.03
2019-02-25T09:59:32.759Z,3.57
2019-02-25T10:02:01.846Z,4.43
2019-02-25T10:04:30.957Z,4.10
2019-02-25T10:07:02.305Z,4.07
2019-02-25T10:09:32.432Z,6.13
2019-02-25T10:12:01.608Z,6.67
2019-02-25T10:14:30.719Z,4.83
2019-02-25T10:16:59.789Z,7.13
2019-02-25T10:19:28.872Z,5.23
2019-02-25T10:21:57.969Z,5.53
2019-02-25T10:24:27.065Z,7.47
2019-02-25T10:26:56.089Z,5.63
2019-02-25T10:29:25.209Z,5.93
2019-02-25T10:31:54.278Z,4.87
2019-02-25T10:34:24.052Z,5.37
2019-02-25T10:36:53.261Z,5.33
2019-02-25T10:39:22.370Z,5.67
2019-02-25T10:41:53.288Z,7.17
2019-02-25T10:44:22.313Z,6.13
2019-02-25T10:46:51.468Z,3.03
2019-02-25T10:49:22.222Z,6.47
2019-02-25T10:51:51.554Z,4.77
2019-02-25T10:54:21.236Z,9.30
2019-02-25T10:56:55.849Z,5.17
2019-02-25T10:59:25.828Z,4.70
2019-02-25T11:01:54.907Z,4.37
2019-02-25T11:04:26.114Z,5.80
2019-02-25T11:06:54.900Z,5.93
2019-02-25T11:09:50.382Z,4.47
2019-02-25T11:12:21.451Z,7.67
2019-02-25T11:14:50.417Z,3.50
2019-02-25T11:17:20.431Z,6.23
2019-02-25T11:19:50.392Z,3.43
2019-02-25T11:22:19.504Z,5.23
2019-02-25T11:24:49.778Z,4.73
2019-02-25T11:27:19.564Z,6.93
2019-02-25T11:29:48.656Z,3.57
2019-02-25T11:32:19.846Z,6.43
2019-02-25T11:34:48.645Z,5.80
2019-02-25T11:37:19.739Z,3.07
2019-02-25T11:39:48.535Z,5.57
2019-02-25T11:42:20.338Z,4.17
2019-02-25T11:44:48.473Z,7.93
2019-02-25T11:47:17.550Z,7.37
2019-02-25T11:49:46.788Z,6.60
2019-02-25T11:52:15.955Z,4.40
2019-02-25T11:54:45.175Z,5.43
2019-02-25T11:57:14.263Z,7.43
2019-02-25T11:59:43.329Z,5.47
2019-02-25T12:02:12.435Z,7.23
2019-02-25T12:04:41.643Z,7.33
2019-02-25T12:07:10.740Z,7.10
2019-02-25T12:09:39.837Z,6.87
2019-02-25T12:12:08.920Z,4.33
2019-02-25T12:14:38.025Z,5.73
2019-02-25T12:17:07.120Z,4.30
2019-02-25T12:19:36.651Z,3.67
2019-02-25T12:22:05.750Z,8.17
2019-02-25T12:24:34.867Z,4.57
2019-02-25T12:27:03.936Z,4.63
2019-02-25T12:29:33.077Z,3.97
2019-02-25T12:32:02.222Z,4.80
2019-02-25T12:34:31.311Z,7.07
2019-02-25T12:37:00.412Z,7.07
2019-02-25T12:39:29.507Z,5.13
2019-02-25T12:41:58.593Z,4.97
2019-02-25T12:44:27.711Z,7.27
2019-02-25T12:46:57.140Z,4.33
2019-02-25T12:49:26.239Z,4.63
2019-02-25T12:51:55.434Z,5.13
2019-02-25T12:54:24.554Z,4.03
2019-02-25T12:56:53.666Z,5.67
2019-02-25T12:59:22.797Z,3.70
2019-02-25T13:01:51.880Z,7.57
2019-02-25T13:04:20.998Z,4.97
2019-02-25T13:06:50.070Z,4.47
2019-02-25T13:09:19.193Z,5.40
2019-02-25T13:11:48.306Z,5.73
2019-02-25T13:14:17.426Z,3.20
2019-02-25T13:16:46.543Z,3.57
2019-02-25T13:19:15.647Z,5.03
2019-02-25T13:21:44.748Z,4.33
2019-02-25T13:24:13.875Z,7.20
2019-02-25T13:26:42.983Z,4.33
2019-02-25T13:29:12.178Z,2.67
2019-02-25T13:31:41.321Z,3.63
2019-02-25T13:34:10.480Z,5.63
2019-02-25T13:36:39.631Z,5.67
2019-02-25T13:39:08.809Z,3.37
2019-02-25T13:41:38.102Z,3.30
2019-02-25T13:44:07.270Z,5.63
2019-02-25T13:46:36.462Z,4.47
2019-02-25T13:49:05.561Z,4.63
2019-02-25T13:51:35.542Z,6.07
2019-02-25T13:54:04.614Z,3.02
2019-02-25T13:56:33.783Z,4.70
2019-02-25T13:59:02.974Z,6.13
2019-02-25T14:01:32.268Z,4.30
2019-02-25T14:04:01.413Z,6.60
2019-02-25T14:06:30.593Z,4.40
2019-02-25T14:08:59.745Z,5.93
2019-02-25T14:11:28.835Z,6.07
2019-02-25T14:13:57.921Z,4.27
2019-02-25T14:16:27.298Z,4.23
2019-02-25T14:18:56.361Z,2.73
2019-02-25T14:21:25.630Z,3.47
2019-02-25T14:23:57.648Z,4.90
2019-02-25T14:26:30.778Z,2.87
2019-02-25T14:29:00.560Z,5.37
2019-02-25T14:31:30.045Z,2.52
2019-02-25T14:33:59.619Z,3.33
2019-02-25T14:36:29.115Z,6.03
2019-02-25T14:38:59.449Z,3.67
2019-02-25T14:41:30.584Z,3.77
2019-02-25T14:44:00.351Z,3.90
2019-02-25T14:46:30.156Z,7.63
2019-02-25T14:49:00.170Z,2.43
2019-02-25T14:51:29.848Z,3.70
2019-02-25T14:53:59.384Z,2.87
2019-02-25T14:56:29.290Z,4.33
2019-02-25T14:59:00.611Z,3.23
2019-02-25T15:01:30.975Z,4.40
2019-02-25T15:04:04.414Z,4.07
2019-02-25T15:06:36.800Z,4.67
2019-02-25T15:09:11.595Z,5.87
2019-02-25T15:11:40.098Z,3.17
2019-02-25T15:14:10.680Z,5.13
2019-02-25T15:16:44.740Z,2.90
2019-02-25T15:19:16.242Z,2.97
2019-02-25T15:21:47.513Z,2.17
2019-02-25T15:24:19.074Z,4.93
2019-02-25T15:26:49.103Z,3.37
2019-02-25T15:29:18.915Z,4.00
2019-02-25T15:31:48.910Z,2.03
2019-02-25T15:34:20.278Z,2.60
2019-02-25T15:36:49.784Z,3.60
2019-02-25T15:39:19.606Z,2.33
2019-02-25T15:41:50.901Z,4.30
2019-02-25T15:44:20.602Z,3.47
2019-02-25T15:46:50.565Z,2.57
2019-02-25T15:49:21.765Z,2.80
2019-02-25T15:51:52.163Z,3.17
2019-02-25T15:54:22.143Z,4.20
2019-02-25T15:56:51.927Z,1.97
2019-02-25T15:59:21.671Z,2.97
2019-02-25T16:01:51.890Z,2.93
2019-02-25T16:04:22.727Z,2.33
2019-02-25T16:06:53.763Z,2.97
2019-02-25T16:09:28.086Z,2.27
2019-02-25T16:25:18.727Z,4.70
2019-02-25T16:27:49.960Z,6.53
2019-02-25T16:30:19.749Z,3.73
2019-02-25T16:32:49.814Z,5.13
2019-02-25T16:35:20.975Z,5.70
2019-02-25T16:37:50.845Z,5.23
2019-02-25T16:40:24.450Z,3.73
2019-02-25T16:42:54.909Z,3.77
2019-02-25T16:45:23.416Z,5.80
2019-02-25T16:47:52.847Z,3.67
2019-02-25T16:50:23.278Z,7.83
2019-02-25T16:52:54.386Z,4.77
2019-02-25T16:55:25.772Z,5.03
2019-02-25T16:57:55.234Z,4.13
2019-02-25T17:00:25.336Z,5.23
2019-02-25T17:02:59.235Z,4.60
2019-02-25T17:05:26.685Z,4.83
2019-02-25T17:07:56.382Z,4.63
2019-02-25T17:10:28.466Z,4.03
2019-02-25T17:12:56.702Z,4.27
2019-02-25T17:15:26.992Z,4.30
2019-02-25T17:17:58.337Z,8.57
2019-02-25T17:20:28.027Z,3.33
2019-02-25T17:22:59.659Z,3.13
2019-02-25T17:25:29.442Z,5.00
2019-02-25T17:27:59.759Z,3.77
2019-02-25T17:30:29.145Z,4.20
2019-02-25T17:32:58.677Z,3.47
2019-02-25T17:35:30.285Z,4.27
2019-02-25T17:38:00.396Z,4.80
2019-02-25T17:40:29.830Z,4.97
2019-02-25T17:42:59.251Z,5.20
2019-02-25T17:45:29.936Z,3.73
2019-02-25T17:48:03.214Z,3.80
2019-02-25T17:50:30.783Z,3.33
2019-02-25T17:53:02.752Z,3.60
2019-02-25T17:55:33.868Z,2.67
2019-02-25T17:58:02.919Z,2.93
2019-02-25T18:00:38.837Z,4.93
2019-02-25T18:03:06.373Z,2.87
2019-02-25T18:05:36.360Z,3.03
2019-02-25T18:08:08.129Z,2.50
2019-02-25T18:10:37.665Z,2.93
2019-02-25T18:13:09.087Z,2.70
2019-02-25T18:15:38.094Z,2.90
2019-02-25T18:18:09.637Z,2.47
2019-02-25T18:20:38.907Z,3.17
2019-02-25T18:23:08.415Z,2.77
2019-02-25T18:25:39.703Z,3.40
2019-02-25T18:28:10.528Z,3.17
2019-02-25T18:30:39.485Z,2.80
2019-02-25T18:33:09.320Z,2.50
2019-02-25T18:35:41.013Z,2.70
2019-02-25T18:38:09.757Z,2.77
2019-02-25T18:40:43.499Z,2.47
2019-02-25T18:43:12.286Z,3.20
2019-02-25T18:45:43.137Z,2.60
2019-02-25T18:48:12.544Z,5.47
2019-02-25T18:50:45.260Z,8.37
2019-02-25T18:53:16.114Z,9.37
2019-02-25T18:55:45.978Z,11.60
2019-02-25T18:58:16.990Z,10.53
2019-02-25T19:00:47.244Z,10.77
2019-02-25T19:03:17.251Z,9.73
2019-02-25T19:05:46.530Z,9.97
2019-02-25T19:08:19.852Z,10.53
2019-02-25T19:10:50.328Z,10.60
2019-02-25T19:13:21.003Z,9.53
2019-02-25T19:15:52.438Z,9.53
2019-02-25T19:18:21.252Z,9.60
2019-02-25T19:20:50.561Z,9.87
2019-02-25T19:23:19.785Z,11.87
2019-02-25T19:25:49.012Z,9.70
2019-02-25T19:28:19.630Z,9.33
2019-02-25T19:30:50.672Z,10.73
2019-02-25T19:33:20.804Z,9.73
2019-02-25T19:35:49.964Z,9.27
2019-02-25T19:38:19.277Z,8.70
2019-02-25T19:40:51.229Z,11.87
2019-02-25T19:43:19.474Z,9.50
2019-02-25T19:45:48.771Z,9.70
2019-02-25T19:48:19.471Z,9.67
2019-02-25T19:50:51.426Z,8.87
2019-02-25T19:53:20.334Z,9.30
2019-02-25T19:55:51.761Z,8.33
2019-02-25T19:58:20.362Z,9.33
2019-02-25T20:00:52.974Z,9.07
2019-02-25T20:03:20.685Z,10.37
2019-02-25T20:05:51.971Z,12.47
2019-02-25T20:08:20.776Z,8.13
2019-02-25T20:10:49.991Z,9.00
2019-02-25T20:13:21.854Z,7.77
2019-02-25T20:15:51.202Z,6.03
2019-02-25T20:18:20.805Z,4.87
2019-02-25T20:20:50.211Z,6.90
2019-02-25T20:23:20.257Z,5.40
2019-02-25T20:25:51.133Z,7.00
2019-02-25T20:28:22.426Z,7.73
2019-02-25T20:30:53.710Z,8.40
2019-02-25T20:33:25.656Z,7.07
2019-02-25T20:35:55.830Z,7.77
2019-02-25T20:38:26.945Z,8.67
2019-02-25T20:40:56.240Z,10.07
2019-02-25T20:43:28.133Z,8.17
2019-02-25T20:45:59.354Z,8.20
2019-02-25T20:48:28.528Z,7.37
2019-02-25T20:50:59.604Z,6.50
2019-02-25T20:53:30.094Z,9.50
2019-02-25T20:55:59.507Z,8.50
2019-02-25T20:58:28.637Z,7.30
2019-02-25T21:00:57.850Z,10.43
2019-02-25T21:03:27.636Z,9.60
2019-02-25T21:05:57.045Z,6.73
2019-02-25T21:08:26.239Z,9.20
2019-02-25T21:10:55.558Z,9.57
2019-02-25T21:13:28.489Z,7.00
2019-02-25T21:15:55.657Z,6.93
2019-02-25T21:18:26.578Z,6.30
2019-02-25T21:20:55.873Z,6.07
2019-02-25T21:23:25.000Z,8.13
2019-02-25T21:25:57.484Z,5.00
2019-02-25T21:28:27.356Z,4.50
2019-02-25T21:30:55.963Z,4.70
2019-02-25T21:33:27.283Z,6.30
2019-02-25T21:35:56.069Z,4.87
2019-02-25T21:38:26.693Z,4.60
2019-02-25T21:40:56.174Z,6.50
2019-02-25T21:43:28.427Z,6.27
2019-02-25T21:45:56.676Z,6.20
2019-02-25T21:48:27.934Z,10.73
2019-02-25T21:51:00.517Z,9.17
2019-02-25T21:53:29.164Z,10.00
2019-02-25T21:56:02.442Z,8.70
2019-02-25T21:58:29.414Z,11.10
2019-02-25T22:00:58.671Z,7.73
2019-02-25T22:03:27.817Z,8.13
2019-02-25T22:05:58.628Z,8.67
2019-02-25T22:08:29.105Z,9.73
2019-02-25T22:11:11.729Z,8.07
2019-02-25T22:13:29.800Z,8.00
2019-02-25T22:15:59.505Z,7.80
2019-02-25T22:18:31.836Z,6.47
2019-02-25T22:21:00.911Z,6.10
2019-02-25T22:23:30.635Z,5.87
2019-02-25T22:26:00.917Z,6.27
2019-02-25T22:28:31.035Z,4.77
2019-02-25T22:31:01.364Z,4.90
2019-02-25T22:33:30.693Z,4.83
2019-02-25T22:35:59.977Z,8.43
2019-02-25T22:38:29.226Z,12.03
2019-02-25T22:41:00.408Z,10.63
2019-02-25T22:43:30.122Z,8.23
2019-02-25T22:46:00.343Z,8.23
2019-02-25T22:48:30.468Z,7.43
2019-02-25T22:51:00.710Z,6.30
2019-02-25T22:53:30.675Z,8.63
2019-02-25T22:55:59.887Z,7.80
2019-02-25T22:58:29.047Z,7.50
2019-02-25T23:01:08.294Z,8.07
2019-02-25T23:03:40.966Z,7.33
2019-02-25T23:06:11.216Z,9.70
2019-02-25T23:08:42.078Z,10.40
2019-02-25T23:11:12.533Z,8.47
2019-02-25T23:13:42.778Z,9.07
2019-02-25T23:16:13.359Z,14.30
2019-02-25T23:18:43.282Z,15.60
2019-02-25T23:21:12.535Z,13.20
2019-02-25T23:23:41.719Z,12.77
2019-02-25T23:26:12.570Z,12.40
2019-02-25T23:28:41.822Z,10.87
2019-02-25T23:31:14.476Z,11.00
2019-02-25T23:33:42.289Z,13.80
2019-02-25T23:36:14.821Z,10.20
2019-02-25T23:38:43.806Z,13.43
2019-02-25T23:41:14.512Z,13.70
2019-02-25T23:43:44.526Z,11.93
2019-02-25T23:46:14.896Z,14.33
2019-02-25T23:48:46.337Z,14.23
2019-02-25T23:51:17.272Z,13.10
2019-02-25T23:53:46.558Z,13.53
2019-02-25T23:56:20.946Z,12.23
2019-02-25T23:58:49.614Z,10.87
